KLRO Airport Information

Runway Information
Runway 17 Length 3700 ft width 75 ft
Elevation 12 ft Threshold 0 ft Heading 167
Runway 35 Length 3700 ft Width 75 ft
Elevation 12 ft Threshold 0 ft Heading 347
Airport Frequencies
Type A/D Name CHARLESTON Frequency 135.8 MHZ
Type UNIC Name CTAF/UNICO Frequency 122.7 MHZ
Airport Navaids
Airport Weather Information & NOTAM
ADDS - METARS form results

(0943 UTC 05 December 2020)
Data provider http://aviationweather.gov/metar/data/
 
METAR text: KLRO 050935Z AUTO 29008G14KT 260V320 10SM CLR 10/09 A2996 RMK AO2
Conditions at: KLRO (MOUNT PLEASANT , SC, US) observed 0935 UTC 05 December 2020
Temperature: 10.0°C (50°F)
Dewpoint: 9.0°C (48°F) [RH = 93%]
Pressure (altimeter): 29.96 inches Hg (1014.6 mb)
Winds: from the WNW (290 degrees) at 9 MPH (8 knots; 4.1 m/s)
gusting to 16 MPH (14 knots; 7.2 m/s)
Visibility: 10 or more miles (16+ km)
Ceiling: at least 12,000 feet AGL
Clouds: sky clear below 12,000 feet AGL
Weather: automated observation with no human augmentation;
there may or may not be significant weather present at this time

METAR text: KLRO 050915Z AUTO 27010KT 230V300 10SM CLR 11/09 A2996 RMK AO2
Conditions at: KLRO (MOUNT PLEASANT , SC, US) observed 0915 UTC 05 December 2020
Temperature: 11.0°C (52°F)
Dewpoint: 9.0°C (48°F) [RH = 87%]
Pressure (altimeter): 29.96 inches Hg (1014.6 mb)
Winds: from the W (270 degrees) at 12 MPH (10 knots; 5.1 m/s)
Visibility: 10 or more miles (16+ km)
Ceiling: at least 12,000 feet AGL
Clouds: sky clear below 12,000 feet AGL
Weather: automated observation with no human augmentation;
there may or may not be significant weather present at this time

METAR text: KLRO 050855Z AUTO VRB05G10KT 10SM FEW021 FEW028 11/09 A2995 RMK AO2
Conditions at: KLRO (MOUNT PLEASANT , SC, US) observed 0855 UTC 05 December 2020
Temperature: 11.0°C (52°F)
Dewpoint: 9.0°C (48°F) [RH = 87%]
Pressure (altimeter): 29.95 inches Hg (1014.3 mb)
Winds: variable direction winds at 6 MPH (5 knots; 2.6 m/s)
gusting to 12 MPH (10 knots; 5.1 m/s)
Visibility: 10 or more miles (16+ km)
Ceiling: at least 12,000 feet AGL
Clouds: few clouds at 2100 feet AGL
few clouds at 2800 feet AGL
Weather: automated observation with no human augmentation;
there may or may not be significant weather present at this time